Time;durP1;ratioP1;P1;durP2;ratioP2;P2;SDS_P1;SDS_P2;PMS_P1;PMS_P2;Temp;Humidity;BMP_temperature;BMP_pressure;BME280_temperature;BME280_humidity;BME280_pressure;Samples;Min_cycle;Max_cycle;Signal;HPM_P1;HPM_P2
2021/09/18 00:00:08;;;;;;;3.90;2.40;;;;;;;15.19;89.34;96655.48;117417;1176;69177;-73
2021/09/18 00:02:57;;;;;;;5.10;3.10;;;;;;;15.23;88.49;96653.95;117353;1175;69150;-73
2021/09/18 00:05:27;;;;;;;4.60;3.30;;;;;;;15.18;88.48;96646.60;117433;1177;58719;-76
2021/09/18 00:07:57;;;;;;;7.20;3.70;;;;;;;15.18;88.26;96649.58;117363;1175;58646;-75
2021/09/18 00:10:26;;;;;;;7.00;3.20;;;;;;;15.19;88.46;96655.27;117281;1176;69745;-72
2021/09/18 00:12:55;;;;;;;7.00;3.20;;;;;;;15.18;88.57;96664.95;117409;1176;69205;-71
2021/09/18 00:15:27;;;;;;;5.30;3.00;;;;;;;15.12;89.16;96671.98;117430;1175;69335;-76
2021/09/18 00:17:59;;;;;;;4.10;3.00;;;;;;;15.10;89.10;96676.42;117436;1175;58693;-75
2021/09/18 00:20:29;;;;;;;4.30;3.10;;;;;;;15.10;89.11;96673.63;117413;1176;58718;-74
2021/09/18 00:23:00;;;;;;;;;;;;;;;15.11;88.79;96670.85;117449;1175;70557;-74
2021/09/18 00:25:30;;;;;;;4.60;2.90;;;;;;;15.12;88.96;96676.39;117432;1175;68430;-75
2021/09/18 00:28:00;;;;;;;3.70;2.80;;;;;;;15.14;88.79;96678.17;117317;1175;69251;-74
2021/09/18 00:30:31;;;;;;;3.20;2.80;;;;;;;15.14;88.57;96676.88;117481;1174;58748;-74
2021/09/18 00:33:02;;;;;;;9.40;2.90;;;;;;;15.17;88.61;96679.19;117449;1174;58709;-72
2021/09/18 00:35:31;;;;;;;;;;;;;;;15.18;88.53;96680.60;117469;1175;70559;-76
2021/09/18 00:38:01;;;;;;;4.00;2.90;;;;;;;15.16;88.67;96677.74;117428;1175;68289;-74
2021/09/18 00:40:31;;;;;;;4.80;3.20;;;;;;;15.17;88.50;96674.66;117273;1166;69231;-69
2021/09/18 00:43:00;;;;;;;4.70;2.90;;;;;;;15.19;88.41;96676.11;117457;1175;58675;-73
2021/09/18 00:45:31;;;;;;;6.70;3.20;;;;;;;15.21;88.12;96677.19;117486;1166;58607;-69
2021/09/18 00:48:01;;;;;;;7.80;3.30;;;;;;;15.23;88.16;96676.81;117451;1175;70449;-73
2021/09/18 00:50:31;;;;;;;5.00;3.10;;;;;;;15.24;88.27;96677.79;117374;1177;68980;-70
2021/09/18 00:53:01;;;;;;;6.80;3.30;;;;;;;15.26;88.32;96679.84;117481;1176;69879;-76
2021/09/18 00:55:31;;;;;;;4.10;3.20;;;;;;;15.26;88.17;96668.75;117349;1176;58668;-73
2021/09/18 00:58:01;;;;;;;6.50;2.90;;;;;;;15.27;88.14;96662.16;117530;1176;57995;-75
2021/09/18 01:00:33;;;;;;;5.40;2.90;;;;;;;15.27;87.83;96667.80;117361;1177;69600;-74
2021/09/18 01:03:02;;;;;;;5.20;2.50;;;;;;;15.28;87.70;96670.65;117463;1175;68184;-74
2021/09/18 01:05:33;;;;;;;2.20;2.00;;;;;;;15.27;87.54;96671.04;117421;1177;68459;-72
2021/09/18 01:08:03;;;;;;;2.30;1.90;;;;;;;15.25;87.42;96669.68;117423;1175;58726;-76
2021/09/18 01:10:33;;;;;;;2.20;2.00;;;;;;;15.23;87.08;96665.34;117355;1175;58709;-75
2021/09/18 01:13:07;;;;;;;3.30;2.00;;;;;;;15.21;86.90;96669.54;117433;1175;70563;-74
2021/09/18 01:15:38;;;;;;;4.10;2.00;;;;;;;15.20;86.78;96668.20;117429;1176;69037;-72
2021/09/18 01:18:09;;;;;;;2.90;2.00;;;;;;;15.19;86.75;96670.43;117470;1175;68458;-75
2021/09/18 01:20:40;;;;;;;;;;;;;;;15.19;86.68;96671.80;117389;1175;58749;-75
2021/09/18 01:23:10;;;;;;;3.90;2.00;;;;;;;15.18;86.83;96673.56;117505;1173;58742;-77
2021/09/18 01:25:40;;;;;;;2.30;2.10;;;;;;;15.16;86.80;96670.95;117387;1175;70252;-77
2021/09/18 01:28:09;;;;;;;4.50;2.00;;;;;;;15.15;86.86;96664.41;117402;1175;68937;-76
2021/09/18 01:30:39;;;;;;;7.00;2.00;;;;;;;15.12;87.61;96666.96;117447;1175;69039;-75
2021/09/18 01:33:10;;;;;;;2.50;2.20;;;;;;;15.09;87.16;96668.29;117440;1175;58751;-75
2021/09/18 01:35:43;;;;;;;2.90;1.80;;;;;;;15.04;87.21;96672.92;117281;1166;58717;-69
2021/09/18 01:38:13;;;;;;;3.00;2.00;;;;;;;14.97;86.80;96676.95;117381;1176;69769;-71
2021/09/18 01:40:45;;;;;;;2.40;1.80;;;;;;;14.90;86.55;96674.64;117419;1175;68563;-74
2021/09/18 01:43:16;;;;;;;1.90;1.80;;;;;;;14.82;86.76;96677.63;117454;1175;68476;-75
2021/09/18 01:45:46;;;;;;;1.90;1.80;;;;;;;14.77;87.01;96677.88;117419;1175;58655;-74
2021/09/18 01:48:17;;;;;;;2.10;1.90;;;;;;;14.71;87.14;96681.19;117401;1175;58675;-74
2021/09/18 01:50:54;;;;;;;2.10;1.90;;;;;;;14.69;86.91;96681.04;117370;1176;70565;-76
2021/09/18 01:53:24;;;;;;;2.40;1.90;;;;;;;14.64;86.98;96678.04;117434;1175;68651;-73
2021/09/18 01:55:55;;;;;;;3.60;1.80;;;;;;;14.60;86.89;96681.20;117388;1176;68400;-77
2021/09/18 01:58:25;;;;;;;1.70;1.60;;;;;;;14.59;86.94;96680.67;117390;1176;58690;-75
2021/09/18 02:01:02;;;;;;;3.20;1.80;;;;;;;14.57;86.92;96682.12;117433;1176;58758;-71
2021/09/18 02:03:33;;;;;;;3.70;1.90;;;;;;;14.56;86.71;96688.73;117425;1176;70549;-69
2021/09/18 02:06:04;;;;;;;3.30;1.70;;;;;;;14.54;86.72;96684.03;117452;1175;69243;-72
2021/09/18 02:08:34;;;;;;;2.90;2.10;;;;;;;14.51;86.65;96684.99;117310;1177;69205;-77
2021/09/18 02:11:03;;;;;;;3.70;1.80;;;;;;;14.47;86.41;96687.27;117319;1176;58726;-73
2021/09/18 02:13:32;;;;;;;3.50;1.70;;;;;;;14.45;86.33;96689.87;117383;1175;58718;-72
2021/09/18 02:16:03;;;;;;;4.10;1.70;;;;;;;14.44;86.21;96687.53;117546;1176;70385;-77
2021/09/18 02:18:32;;;;;;;;;;;;;;;14.43;86.26;96690.91;117390;1175;68639;-76
2021/09/18 02:21:02;;;;;;;2.00;1.70;;;;;;;14.42;86.45;96695.27;117130;1177;69192;-77
2021/09/18 02:23:33;;;;;;;3.10;1.90;;;;;;;14.41;86.22;96692.08;117413;1177;58738;-73
2021/09/18 02:26:03;;;;;;;2.20;2.00;;;;;;;14.38;86.08;96691.59;117505;1171;58662;-76
2021/09/18 02:28:33;;;;;;;4.50;2.00;;;;;;;14.38;86.09;96692.80;117287;1176;70482;-75
2021/09/18 02:31:03;;;;;;;2.00;1.80;;;;;;;14.36;85.97;96691.60;117400;1176;68464;-76
2021/09/18 02:33:33;;;;;;;4.30;2.30;;;;;;;14.36;85.71;96690.36;117440;1175;67280;-73
2021/09/18 02:36:02;;;;;;;2.60;2.10;;;;;;;14.30;85.84;96691.73;117396;1177;58725;-76
2021/09/18 02:38:32;;;;;;;2.90;2.00;;;;;;;14.27;85.77;96692.46;117420;1175;58703;-76
2021/09/18 02:41:02;;;;;;;2.10;1.70;;;;;;;14.25;85.80;96691.43;117428;1175;70402;-73
2021/09/18 02:43:32;;;;;;;2.50;2.00;;;;;;;14.24;85.95;96688.88;117363;1175;69267;-78
2021/09/18 02:46:02;;;;;;;1.90;1.80;;;;;;;14.23;86.18;96690.94;117403;1175;69088;-75
2021/09/18 02:48:31;;;;;;;2.40;2.00;;;;;;;14.22;85.89;96697.91;117364;1177;58805;-76
2021/09/18 02:51:14;;;;;;;3.00;2.20;;;;;;;14.22;86.03;96697.91;117346;1175;58745;-74
2021/09/18 02:53:44;;;;;;;2.50;1.80;;;;;;;14.21;85.90;96698.27;117383;1175;70210;-70
2021/09/18 02:56:14;;;;;;;3.60;2.20;;;;;;;14.23;85.97;96698.89;117552;1176;69189;-74
2021/09/18 02:58:43;;;;;;;2.30;2.00;;;;;;;14.23;85.91;96702.08;117407;1177;68421;-75
2021/09/18 03:01:13;;;;;;;2.20;2.00;;;;;;;14.22;85.79;96699.59;117389;1176;58694;-75
2021/09/18 03:03:43;;;;;;;2.90;2.20;;;;;;;14.22;85.84;96699.02;117438;1174;58673;-72
2021/09/18 03:06:13;;;;;;;2.30;2.10;;;;;;;14.20;86.03;96700.46;117382;1174;69778;-77
2021/09/18 03:08:43;;;;;;;3.40;2.10;;;;;;;14.18;85.89;96699.84;117478;1175;69224;-75
2021/09/18 03:11:12;;;;;;;2.40;2.10;;;;;;;14.17;85.94;96700.84;117412;1177;68452;-78
2021/09/18 03:13:42;;;;;;;4.70;2.10;;;;;;;14.17;85.86;96703.65;117341;1176;58731;-75
2021/09/18 03:16:12;;;;;;;3.90;2.20;;;;;;;14.16;85.72;96706.46;117381;1174;58662;-77
2021/09/18 03:18:42;;;;;;;1.70;1.60;;;;;;;14.16;85.73;96707.83;117505;1176;69585;-75
2021/09/18 03:21:12;;;;;;;2.00;1.90;;;;;;;14.14;86.00;96708.35;117364;1175;68261;-72
2021/09/18 03:23:41;;;;;;;2.30;2.10;;;;;;;14.13;86.02;96713.80;117421;1175;68421;-73
2021/09/18 03:26:11;;;;;;;2.30;2.00;;;;;;;14.10;85.89;96715.64;117416;1175;60743;-79
2021/09/18 03:28:40;;;;;;;4.40;1.90;;;;;;;14.06;86.04;96718.32;117446;1177;59122;-74
2021/09/18 03:31:10;;;;;;;2.80;1.70;;;;;;;14.04;85.75;96721.10;117453;1176;69808;-71
2021/09/18 03:33:39;;;;;;;2.20;1.60;;;;;;;14.01;85.71;96725.92;117444;1177;68503;-77
2021/09/18 03:36:09;;;;;;;2.30;2.00;;;;;;;13.99;85.63;96731.08;117383;1177;68248;-76
2021/09/18 03:38:38;;;;;;;1.90;1.70;;;;;;;13.98;85.79;96734.10;117502;1176;58710;-76
2021/09/18 03:41:08;;;;;;;2.10;1.80;;;;;;;13.95;85.60;96734.10;117357;1174;58706;-77
2021/09/18 03:43:37;;;;;;;3.30;1.80;;;;;;;13.93;85.56;96732.70;117412;1177;70838;-79
2021/09/18 03:46:07;;;;;;;4.00;2.20;;;;;;;13.91;85.80;96733.88;117319;1176;68375;-77
2021/09/18 03:48:37;;;;;;;3.10;1.50;;;;;;;13.88;85.80;96737.27;117392;1177;69182;-77
2021/09/18 03:51:06;;;;;;;2.00;1.80;;;;;;;13.86;85.83;96733.56;117383;1175;58695;-76
2021/09/18 03:53:36;;;;;;;1.90;1.80;;;;;;;13.84;85.70;96734.48;117369;1175;58693;-78
2021/09/18 03:56:06;;;;;;;2.20;2.00;;;;;;;13.83;86.03;96740.02;117413;1176;70552;-75
2021/09/18 03:58:36;;;;;;;3.60;2.00;;;;;;;13.82;86.01;96734.33;117422;1174;69195;-76
2021/09/18 04:01:05;;;;;;;1.90;1.70;;;;;;;13.81;85.97;96734.86;117289;1175;69204;-75
2021/09/18 04:03:35;;;;;;;1.70;1.60;;;;;;;13.78;85.57;96733.59;117373;1176;58710;-77
2021/09/18 04:06:04;;;;;;;2.80;1.70;;;;;;;13.76;85.51;96737.91;117406;1174;58681;-79
2021/09/18 04:08:34;;;;;;;4.70;1.80;;;;;;;13.73;85.26;96744.45;117362;1175;69762;-75
2021/09/18 04:11:03;;;;;;;2.80;1.80;;;;;;;13.72;85.46;96744.82;117363;1171;68969;-76
2021/09/18 04:13:32;;;;;;;3.80;1.90;;;;;;;13.70;85.40;96745.19;117401;1177;69194;-79
2021/09/18 04:16:02;;;;;;;2.50;1.60;;;;;;;13.70;85.53;96746.77;117135;1177;58720;-75
2021/09/18 04:18:31;;;;;;;2.00;1.80;;;;;;;13.68;86.18;96745.11;117428;1177;58714;-76
2021/09/18 04:21:00;;;;;;;2.40;1.60;;;;;;;13.67;85.45;96746.70;117240;1177;69830;-79
2021/09/18 04:23:32;;;;;;;2.80;1.50;;;;;;;13.65;85.56;96749.64;117390;1177;69038;-79
2021/09/18 04:26:02;;;;;;;4.70;1.90;;;;;;;13.64;85.67;96752.40;117342;1176;69688;-78
2021/09/18 04:28:31;;;;;;;2.10;1.70;;;;;;;13.62;85.68;96754.64;117329;1175;58698;-77
2021/09/18 04:31:00;;;;;;;2.40;1.80;;;;;;;13.56;85.83;96755.90;117366;1175;58736;-75
2021/09/18 04:33:30;;;;;;;2.10;1.90;;;;;;;13.51;85.85;96754.24;117286;1176;69397;-75
2021/09/18 04:35:59;;;;;;;2.20;2.00;;;;;;;13.47;85.77;96756.10;117364;1176;69464;-77
2021/09/18 04:38:29;;;;;;;3.00;1.80;;;;;;;13.46;85.99;96756.71;117381;1177;69377;-72
2021/09/18 04:40:58;;;;;;;2.20;1.70;;;;;;;13.45;86.22;96759.94;117379;1175;58724;-77
2021/09/18 04:43:27;;;;;;;2.30;1.60;;;;;;;13.46;85.92;96761.16;117333;1176;58688;-73
2021/09/18 04:45:56;;;;;;;3.90;1.70;;;;;;;13.49;85.54;96761.34;117395;1175;69746;-76
2021/09/18 04:48:26;;;;;;;4.70;1.60;;;;;;;13.48;85.55;96768.56;117364;1175;68809;-76
2021/09/18 04:50:55;;;;;;;1.80;1.70;;;;;;;13.47;85.51;96772.33;117386;1175;68513;-76
2021/09/18 04:53:26;;;;;;;2.90;1.70;;;;;;;13.49;85.38;96775.19;117397;1175;58754;-76
2021/09/18 04:55:55;;;;;;;3.20;1.80;;;;;;;13.49;85.45;96776.52;117415;1175;58795;-77
2021/09/18 04:58:27;;;;;;;2.20;1.70;;;;;;;13.49;85.40;96779.80;117369;1175;70486;-76
2021/09/18 05:00:56;;;;;;;2.40;1.60;;;;;;;13.49;85.28;96783.50;117410;1177;69263;-71
2021/09/18 05:03:26;;;;;;;3.90;2.10;;;;;;;13.47;85.31;96781.55;117209;1177;68285;-77
2021/09/18 05:05:55;;;;;;;1.50;1.40;;;;;;;13.48;85.40;96783.79;117354;1176;59142;-79
2021/09/18 05:08:24;;;;;;;3.40;1.60;;;;;;;13.47;85.12;96784.00;117402;1175;58739;-79
2021/09/18 05:10:53;;;;;;;3.50;1.60;;;;;;;13.48;85.22;96787.38;117307;1175;69582;-76
2021/09/18 05:13:22;;;;;;;1.70;1.60;;;;;;;13.47;85.26;96786.94;117331;1177;68949;-76
2021/09/18 05:15:51;;;;;;;2.20;1.80;;;;;;;13.49;85.05;96790.92;117330;1167;68896;-77
2021/09/18 05:18:20;;;;;;;3.30;1.70;;;;;;;13.49;85.16;96789.41;117355;1176;58725;-75
2021/09/18 05:20:49;;;;;;;2.60;1.60;;;;;;;13.51;85.03;96795.72;117291;1176;58740;-76
2021/09/18 05:23:19;;;;;;;2.40;1.60;;;;;;;13.52;84.93;96791.88;117347;1176;70575;-73
2021/09/18 05:25:47;;;;;;;2.00;1.70;;;;;;;13.55;84.91;96796.14;117360;1167;69319;-76
2021/09/18 05:28:16;;;;;;;1.80;1.70;;;;;;;13.55;84.99;96799.42;117355;1177;68562;-72
2021/09/18 05:30:45;;;;;;;1.90;1.60;;;;;;;13.57;84.54;96803.66;117363;1175;58697;-69
2021/09/18 05:33:14;;;;;;;2.00;1.70;;;;;;;13.61;84.73;96811.83;117379;1174;58735;-77
2021/09/18 05:35:43;;;;;;;2.00;1.80;;;;;;;13.62;84.33;96812.86;117349;1176;70189;-80
2021/09/18 05:38:12;;;;;;;3.10;2.10;;;;;;;13.61;84.76;96814.21;117314;1176;69629;-77
2021/09/18 05:40:42;;;;;;;6.30;1.80;;;;;;;13.65;84.92;96818.09;117130;1177;69176;-80
2021/09/18 05:43:11;;;;;;;2.00;1.80;;;;;;;13.67;84.69;96821.53;117322;1175;58688;-75
2021/09/18 05:45:41;;;;;;;4.20;1.80;;;;;;;13.70;84.45;96823.23;117418;1176;58741;-78
2021/09/18 05:48:10;;;;;;;4.20;1.70;;;;;;;13.67;84.11;96819.10;117364;1175;70631;-80
2021/09/18 05:50:39;;;;;;;2.10;1.90;;;;;;;13.68;84.21;96821.95;117412;1175;69190;-73
2021/09/18 05:53:09;;;;;;;3.60;1.90;;;;;;;13.67;84.21;96825.13;117387;1175;69052;-75
2021/09/18 05:55:38;;;;;;;3.30;1.70;;;;;;;13.65;84.33;96827.48;117338;1177;58716;-80
2021/09/18 05:58:07;;;;;;;3.10;1.90;;;;;;;13.65;84.53;96830.73;117416;1177;58691;-72
2021/09/18 06:00:36;;;;;;;2.00;1.80;;;;;;;13.65;84.44;96829.02;117422;1176;70582;-77
2021/09/18 06:03:05;;;;;;;1.90;1.80;;;;;;;13.66;84.59;96831.53;117451;1175;68271;-72
2021/09/18 06:05:35;;;;;;;4.50;1.70;;;;;;;13.70;84.47;96827.84;117310;1176;69246;-78
2021/09/18 06:08:04;;;;;;;2.10;1.90;;;;;;;13.75;84.40;96830.12;117412;1175;58706;-75
2021/09/18 06:10:33;;;;;;;3.70;1.40;;;;;;;13.79;84.26;96826.48;117409;1177;58697;-76
2021/09/18 06:13:02;;;;;;;2.30;1.60;;;;;;;13.82;83.76;96832.79;117395;1176;69157;-76
2021/09/18 06:15:32;;;;;;;4.50;1.70;;;;;;;13.84;83.61;96835.43;117460;1176;68465;-70
2021/09/18 06:18:00;;;;;;;1.90;1.70;;;;;;;13.86;83.50;96838.23;117458;1175;69045;-74
2021/09/18 06:20:30;;;;;;;1.50;1.40;;;;;;;13.86;83.48;96841.88;117459;1176;58720;-76
2021/09/18 06:22:58;;;;;;;1.40;1.30;;;;;;;13.87;83.18;96842.15;117391;1176;58749;-75
2021/09/18 06:25:27;;;;;;;2.40;1.60;;;;;;;13.86;83.02;96845.98;117440;1175;70683;-79
2021/09/18 06:27:56;;;;;;;1.70;1.60;;;;;;;13.83;82.98;96848.06;117380;1176;68575;-75
2021/09/18 06:30:25;;;;;;;2.60;1.60;;;;;;;13.84;83.04;96850.65;117377;1176;68729;-71
2021/09/18 06:32:54;;;;;;;2.40;1.60;;;;;;;13.87;83.12;96852.63;117433;1176;58710;-74
2021/09/18 06:35:23;;;;;;;1.60;1.50;;;;;;;13.88;82.93;96856.15;117446;1175;58723;-79
2021/09/18 06:37:53;;;;;;;2.10;1.50;;;;;;;13.89;82.76;96855.09;117440;1176;69723;-72
2021/09/18 06:40:22;;;;;;;2.00;1.40;;;;;;;13.90;83.00;96853.49;117430;1175;68586;-77
2021/09/18 06:42:51;;;;;;;2.40;1.70;;;;;;;13.92;82.75;96855.25;117406;1177;69274;-77
2021/09/18 06:45:20;;;;;;;3.10;1.70;;;;;;;13.94;82.64;96858.56;117395;1175;59150;-72
2021/09/18 06:47:49;;;;;;;3.20;1.70;;;;;;;13.94;82.28;96865.15;117450;1175;58751;-73
2021/09/18 06:50:18;;;;;;;2.00;1.50;;;;;;;13.90;82.13;96868.38;117446;1176;70539;-75
2021/09/18 06:52:47;;;;;;;1.70;1.60;;;;;;;13.85;81.94;96869.29;117461;1175;67809;-71
2021/09/18 06:55:16;;;;;;;3.70;1.70;;;;;;;13.84;81.54;96872.27;117422;1176;68998;-77
2021/09/18 06:57:45;;;;;;;2.50;1.70;;;;;;;13.86;82.13;96877.90;117426;1166;59526;-78
2021/09/18 07:00:15;;;;;;;3.20;1.90;;;;;;;13.86;82.04;96876.60;117412;1176;59529;-78
2021/09/18 07:02:44;;;;;;;2.30;1.70;;;;;;;13.84;81.96;96874.80;117422;1176;71335;-74
2021/09/18 07:05:14;;;;;;;4.50;1.90;;;;;;;13.88;82.47;96874.20;117355;1174;69175;-75
2021/09/18 07:07:42;;;;;;;2.40;2.00;;;;;;;13.92;82.29;96879.89;117442;1175;69037;-74
2021/09/18 07:10:13;;;;;;;3.60;2.00;;;;;;;13.93;81.93;96879.82;117432;1175;59529;-74
2021/09/18 07:12:42;;;;;;;2.60;2.20;;;;;;;13.91;81.49;96880.94;117414;1175;59526;-73
2021/09/18 07:15:11;;;;;;;2.70;2.20;;;;;;;13.87;81.34;96883.73;117429;1175;70588;-71
2021/09/18 07:17:40;;;;;;;2.80;2.10;;;;;;;13.84;81.49;96887.29;117440;1174;68956;-70
2021/09/18 07:20:11;;;;;;;9.40;2.60;;;;;;;13.85;82.02;96887.15;117408;1177;69037;-78
2021/09/18 07:22:40;;;;;;;5.60;2.70;;;;;;;13.85;82.09;96891.91;117468;1176;59526;-73
2021/09/18 07:25:10;;;;;;;3.90;2.70;;;;;;;13.86;82.13;96897.29;117444;1175;59513;-74
2021/09/18 07:27:39;;;;;;;3.20;2.80;;;;;;;13.88;81.98;96899.10;117362;1177;70410;-75
2021/09/18 07:30:09;;;;;;;4.70;3.20;;;;;;;13.90;82.14;96904.40;117283;1176;68586;-74
2021/09/18 07:32:39;;;;;;;4.30;3.10;;;;;;;13.89;81.85;96904.38;117359;1175;69077;-69
2021/09/18 07:35:08;;;;;;;4.50;3.10;;;;;;;13.83;81.73;96911.81;117254;1175;59535;-73
2021/09/18 07:37:38;;;;;;;6.10;3.30;;;;;;;13.80;81.54;96917.94;117413;1177;59577;-70
2021/09/18 07:40:11;;;;;;;5.20;2.80;;;;;;;13.82;81.63;96924.52;117348;1176;70881;-69
2021/09/18 07:42:40;;;;;;;4.10;3.10;;;;;;;13.82;81.83;96919.20;117337;1176;68778;-77
2021/09/18 07:45:10;;;;;;;3.40;2.80;;;;;;;13.77;81.61;96922.73;117417;1176;69104;-69
2021/09/18 07:47:40;;;;;;;5.00;3.60;;;;;;;13.78;81.84;96929.23;117430;1177;59571;-71
2021/09/18 07:50:09;;;;;;;5.10;3.20;;;;;;;13.82;81.47;96928.20;117453;1168;59442;-73
2021/09/18 07:52:39;;;;;;;3.70;3.10;;;;;;;13.86;81.55;96928.15;117442;1177;69545;-71
2021/09/18 07:55:10;;;;;;;6.00;3.90;;;;;;;13.95;81.71;96925.35;117430;1175;68432;-71
2021/09/18 07:58:01;;;;;;;5.10;3.70;;;;;;;14.09;81.54;96932.46;117371;1177;69199;-72
2021/09/18 08:00:30;;;;;;;;;;;;;;;14.19;80.75;96932.82;117403;1175;59481;-74
2021/09/18 08:02:59;;;;;;;4.60;3.60;;;;;;;14.28;80.35;96933.27;117405;1175;59556;-70
2021/09/18 08:05:28;;;;;;;5.90;3.50;;;;;;;14.40;80.46;96930.89;117387;1175;71241;-69
2021/09/18 08:08:01;;;;;;;5.50;3.40;;;;;;;14.54;80.37;96934.37;117406;1176;69677;-70
2021/09/18 08:10:32;;;;;;;5.80;4.10;;;;;;;14.64;80.12;96935.98;117401;1175;68135;-71
2021/09/18 08:13:02;;;;;;;4.80;3.90;;;;;;;14.73;79.91;96937.50;117448;1177;59515;-69
2021/09/18 08:15:30;;;;;;;6.00;4.10;;;;;;;14.78;79.68;96938.96;117379;1175;59538;-69
2021/09/18 08:18:00;;;;;;;6.40;4.70;;;;;;;14.84;79.42;96941.22;117448;1175;71337;-72
2021/09/18 08:20:29;;;;;;;7.20;4.70;;;;;;;14.89;78.96;96943.08;117354;1175;68578;-75
2021/09/18 08:22:58;;;;;;;7.20;4.90;;;;;;;14.92;78.61;96943.71;117449;1177;69107;-70
2021/09/18 08:25:27;;;;;;;6.70;5.10;;;;;;;14.97;78.58;96946.33;117350;1175;59538;-70
2021/09/18 08:27:57;;;;;;;5.90;4.70;;;;;;;15.02;78.03;96946.85;117210;1176;59552;-71
2021/09/18 08:30:26;;;;;;;8.20;4.20;;;;;;;15.07;77.99;96951.31;117378;1175;71390;-70
2021/09/18 08:32:55;;;;;;;7.30;5.10;;;;;;;15.15;78.23;96955.14;117379;1176;69022;-71
2021/09/18 08:35:24;;;;;;;7.50;5.00;;;;;;;15.21;77.53;96955.92;117319;1177;69274;-71
2021/09/18 08:37:53;;;;;;;7.50;5.20;;;;;;;15.25;77.23;96956.55;117318;1175;59551;-70
2021/09/18 08:40:26;;;;;;;9.50;5.60;;;;;;;15.32;77.53;96962.25;117406;1175;59952;-70
2021/09/18 08:42:55;;;;;;;7.40;5.20;;;;;;;15.41;77.07;96958.84;117355;1176;70618;-69
2021/09/18 08:45:26;;;;;;;7.30;5.10;;;;;;;15.50;76.31;96957.15;117350;1176;69200;-69
2021/09/18 08:48:03;;;;;;;8.20;5.50;;;;;;;15.59;76.57;96961.47;117310;1171;68455;-70
2021/09/18 08:50:34;;;;;;;7.40;5.40;;;;;;;15.74;75.73;96952.23;117356;1175;59513;-70
2021/09/18 08:53:06;;;;;;;7.80;5.50;;;;;;;15.87;74.76;96951.31;117415;1166;59552;-70
2021/09/18 08:55:35;;;;;;;7.60;5.60;;;;;;;15.98;74.82;96956.58;117239;1176;71423;-73
2021/09/18 08:58:04;;;;;;;9.70;5.80;;;;;;;16.08;73.93;96957.71;117327;1175;68334;-70
2021/09/18 09:00:33;;;;;;;8.90;5.80;;;;;;;16.22;74.14;96960.13;117305;1177;69087;-70
2021/09/18 09:03:07;;;;;;;9.00;5.60;;;;;;;16.45;73.95;96958.42;117360;1175;59478;-70
2021/09/18 09:05:39;;;;;;;9.30;5.10;;;;;;;16.68;72.67;96964.52;117314;1167;59559;-71
2021/09/18 09:08:17;;;;;;;6.50;4.80;;;;;;;16.81;70.62;96960.77;117373;1177;70399;-70
2021/09/18 09:10:47;;;;;;;6.70;5.00;;;;;;;16.95;70.25;96962.21;117335;1175;70441;-70
2021/09/18 09:13:21;;;;;;;6.70;5.10;;;;;;;17.18;69.17;96959.87;117374;1175;69031;-71
2021/09/18 09:16:06;;;;;;;7.30;5.20;;;;;;;17.54;70.03;96951.91;117224;1176;59583;-69
2021/09/18 09:18:42;;;;;;;7.50;5.40;;;;;;;17.99;67.10;96955.61;117327;1176;59529;-70
2021/09/18 09:21:18;;;;;;;6.50;4.90;;;;;;;18.35;66.02;96949.34;117152;1176;70563;-71
2021/09/18 09:24:07;;;;;;;6.90;5.10;;;;;;;18.85;66.13;96951.23;117347;1175;68438;-69
2021/09/18 09:26:39;;;;;;;6.90;5.10;;;;;;;19.00;62.87;96950.14;117276;1176;68427;-71
2021/09/18 09:29:09;;;;;;;7.90;5.50;;;;;;;19.12;62.46;96950.96;117296;1175;59503;-74
2021/09/18 09:31:39;;;;;;;9.40;5.00;;;;;;;19.17;61.81;96950.80;117277;1176;59509;-70
2021/09/18 09:34:15;;;;;;;7.00;5.50;;;;;;;19.21;62.03;96952.19;117266;1176;71421;-72
2021/09/18 09:36:45;;;;;;;7.40;5.80;;;;;;;19.12;61.51;96956.73;117328;1175;69381;-71
2021/09/18 09:39:19;;;;;;;7.70;5.80;;;;;;;18.99;61.87;96953.76;117360;1167;69180;-70
2021/09/18 09:41:54;;;;;;;8.70;6.00;;;;;;;19.14;61.92;96948.21;117367;1176;59532;-76
2021/09/18 09:44:27;;;;;;;7.30;5.90;;;;;;;19.56;60.97;96940.80;117370;1175;59518;-77
2021/09/18 09:47:11;;;;;;;9.20;5.80;;;;;;;19.87;59.23;96938.45;117359;1177;71305;-71
2021/09/18 09:49:48;;;;;;;6.70;5.60;;;;;;;19.84;57.85;96936.98;117351;1176;68378;-72
2021/09/18 09:52:23;;;;;;;7.40;6.00;;;;;;;20.28;57.47;96938.63;117373;1177;68400;-70
2021/09/18 09:54:55;;;;;;;7.90;6.90;;;;;;;20.60;57.45;96938.49;117332;1177;59605;-76
2021/09/18 09:57:24;;;;;;;9.30;6.60;;;;;;;20.56;56.87;96935.44;117302;1175;59513;-69
2021/09/18 09:59:58;;;;;;;7.40;6.50;;;;;;;20.49;56.36;96934.60;117324;1177;71427;-73
2021/09/18 10:02:27;;;;;;;7.30;6.00;;;;;;;20.85;54.33;96932.86;117381;1176;68364;-70
2021/09/18 10:04:56;;;;;;;7.90;6.40;;;;;;;21.38;54.67;96931.52;117311;1177;68460;-75
2021/09/18 10:07:26;;;;;;;8.00;6.40;;;;;;;21.70;52.92;96925.09;117346;1176;59499;-70
2021/09/18 10:09:55;;;;;;;10.40;6.60;;;;;;;21.44;51.26;96925.23;117376;1176;59510;-73
2021/09/18 10:12:26;;;;;;;8.10;7.00;;;;;;;21.63;52.34;96925.30;117351;1175;71388;-71
2021/09/18 10:14:56;;;;;;;8.70;6.20;;;;;;;22.36;50.65;96925.36;117435;1175;68545;-77
2021/09/18 10:17:25;;;;;;;7.70;6.40;;;;;;;22.96;47.71;96916.30;117423;1175;68463;-71
2021/09/18 10:20:05;;;;;;;7.80;6.00;;;;;;;23.33;46.21;96922.30;117407;1176;59522;-72
2021/09/18 10:25:32;;;;;;;7.10;6.10;;;;;;;24.90;44.33;96920.23;117444;1176;71209;-71
2021/09/18 10:28:18;;;;;;;7.40;6.00;;;;;;;25.83;42.83;96920.58;117427;1176;68516;-72
2021/09/18 10:30:55;;;;;;;8.40;6.50;;;;;;;26.57;41.24;96919.21;117336;1175;69047;-73
2021/09/18 10:33:32;;;;;;;6.80;5.80;;;;;;;26.94;40.24;96919.39;117396;1175;59590;-70
2021/09/18 10:36:15;;;;;;;11.00;9.30;;;;;;;26.85;38.25;96924.17;117414;1175;59522;-74
2021/09/18 10:39:02;;;;;;;6.40;5.30;;;;;;;27.17;38.25;96922.27;117398;1168;71716;-71
2021/09/18 10:41:44;;;;;;;6.90;5.40;;;;;;;26.97;37.46;96923.90;117378;1176;69342;-74
2021/09/18 10:44:15;;;;;;;6.30;4.70;;;;;;;27.33;37.94;96923.23;117338;1175;68977;-72
2021/09/18 10:46:51;;;;;;;5.90;4.60;;;;;;;27.94;36.43;96915.41;117395;1176;59522;-75
2021/09/18 10:49:33;;;;;;;7.10;4.50;;;;;;;28.50;35.29;96911.16;117435;1177;59526;-72
2021/09/18 10:52:20;;;;;;;6.40;4.80;;;;;;;28.24;33.81;96904.63;117446;1176;71404;-76
2021/09/18 10:55:02;;;;;;;5.50;4.90;;;;;;;27.20;36.31;96910.39;117425;1175;69023;-73
2021/09/18 10:57:42;;;;;;;7.30;4.90;;;;;;;26.21;38.10;96915.55;117408;1176;68300;-72
2021/09/18 11:00:32;;;;;;;5.40;4.80;;;;;;;25.55;39.63;96920.13;117400;1175;59572;-78
2021/09/18 11:03:05;;;;;;;6.20;5.30;;;;;;;24.92;40.41;96924.52;117414;1174;59500;-76
2021/09/18 11:05:37;;;;;;;6.70;5.40;;;;;;;24.19;41.19;96917.45;117402;1175;71497;-76
2021/09/18 11:08:15;;;;;;;8.40;5.20;;;;;;;23.51;42.86;96918.26;117383;1174;68362;-80
2021/09/18 11:10:44;;;;;;;5.70;4.80;;;;;;;23.83;43.84;96917.17;117437;1174;69375;-75
2021/09/18 11:13:12;;;;;;;6.60;5.30;;;;;;;24.35;42.12;96914.36;117421;1174;59547;-79
2021/09/18 11:15:50;;;;;;;7.40;5.10;;;;;;;24.97;41.76;96912.31;117406;1175;59538;-79
2021/09/18 11:18:28;;;;;;;5.60;4.50;;;;;;;25.19;40.25;96906.65;117419;1174;71458;-74
2021/09/18 11:21:25;;;;;;;5.90;4.50;;;;;;;25.09;38.57;96909.62;117441;1175;68956;-71
2021/09/18 11:23:57;;;;;;;5.20;4.30;;;;;;;25.02;39.00;96904.39;117415;1174;68255;-78
2021/09/18 11:26:39;;;;;;;5.70;4.30;;;;;;;25.66;39.09;96899.64;117459;1176;59580;-74
2021/09/18 11:29:33;;;;;;;6.50;4.10;;;;;;;26.47;38.11;96896.13;117420;1168;59484;-72
2021/09/18 11:32:07;;;;;;;6.90;4.50;;;;;;;27.33;37.28;96896.70;117441;1174;71252;-73
2021/09/18 11:34:43;;;;;;;4.50;3.50;;;;;;;27.73;34.76;96894.85;117406;1175;68994;-77
2021/09/18 11:37:24;;;;;;;4.10;3.30;;;;;;;27.99;34.05;96896.81;117302;1177;69478;-76
2021/09/18 11:40:19;;;;;;;4.70;3.20;;;;;;;28.15;33.16;96894.89;117423;1175;59526;-78
2021/09/18 11:42:49;;;;;;;3.90;3.10;;;;;;;27.24;33.44;96894.09;117108;1175;59535;-73
2021/09/18 11:45:23;;;;;;;6.30;2.90;;;;;;;26.29;34.69;96898.14;117358;1177;71163;-80
2021/09/18 11:47:58;;;;;;;3.10;2.70;;;;;;;25.46;36.02;96898.88;117447;1174;67564;-73